sensor_id;sensor_type;location;lat;lon;timestamp;P1;durP1;ratioP1;P2;durP2;ratioP2
63087;SDS011;49173;43.164;27.786;2023-06-22T00:02:13;12.77;;;9.57;;
63087;SDS011;49173;43.164;27.786;2023-06-22T00:04:39;15.57;;;9.48;;
63087;SDS011;49173;43.164;27.786;2023-06-22T00:07:05;11.27;;;8.55;;
63087;SDS011;49173;43.164;27.786;2023-06-22T00:09:31;13.38;;;8.35;;
63087;SDS011;49173;43.164;27.786;2023-06-22T00:11:57;14.27;;;7.97;;
63087;SDS011;49173;43.164;27.786;2023-06-22T00:14:23;13.43;;;8.45;;
63087;SDS011;49173;43.164;27.786;2023-06-22T00:16:49;16.92;;;7.82;;
63087;SDS011;49173;43.164;27.786;2023-06-22T00:19:21;12.65;;;8.38;;
63087;SDS011;49173;43.164;27.786;2023-06-22T00:21:47;15.07;;;7.70;;
63087;SDS011;49173;43.164;27.786;2023-06-22T00:24:18;13.40;;;8.15;;
63087;SDS011;49173;43.164;27.786;2023-06-22T00:26:50;13.93;;;8.48;;
63087;SDS011;49173;43.164;27.786;2023-06-22T00:29:16;14.55;;;9.13;;
63087;SDS011;49173;43.164;27.786;2023-06-22T00:31:43;13.02;;;8.45;;
63087;SDS011;49173;43.164;27.786;2023-06-22T00:34:09;14.00;;;8.10;;
63087;SDS011;49173;43.164;27.786;2023-06-22T00:36:35;11.38;;;9.00;;
63087;SDS011;49173;43.164;27.786;2023-06-22T00:39:02;14.50;;;8.85;;
63087;SDS011;49173;43.164;27.786;2023-06-22T00:41:28;17.27;;;10.27;;
63087;SDS011;49173;43.164;27.786;2023-06-22T00:43:54;18.95;;;11.13;;
63087;SDS011;49173;43.164;27.786;2023-06-22T00:46:21;22.40;;;13.27;;
63087;SDS011;49173;43.164;27.786;2023-06-22T00:48:48;20.23;;;12.77;;
63087;SDS011;49173;43.164;27.786;2023-06-22T00:51:14;18.95;;;12.85;;
63087;SDS011;49173;43.164;27.786;2023-06-22T00:53:40;26.55;;;14.75;;
63087;SDS011;49173;43.164;27.786;2023-06-22T00:56:08;25.15;;;17.27;;
63087;SDS011;49173;43.164;27.786;2023-06-22T00:58:35;24.40;;;17.33;;
63087;SDS011;49173;43.164;27.786;2023-06-22T01:01:02;26.42;;;17.25;;
63087;SDS011;49173;43.164;27.786;2023-06-22T01:03:27;21.83;;;15.95;;
63087;SDS011;49173;43.164;27.786;2023-06-22T01:05:54;20.25;;;15.75;;
63087;SDS011;49173;43.164;27.786;2023-06-22T01:11:08;17.27;;;13.05;;
63087;SDS011;49173;43.164;27.786;2023-06-22T01:16:35;16.35;;;10.55;;
63087;SDS011;49173;43.164;27.786;2023-06-22T01:21:59;15.15;;;10.25;;
63087;SDS011;49173;43.164;27.786;2023-06-22T01:24:41;11.00;;;9.80;;
63087;SDS011;49173;43.164;27.786;2023-06-22T01:29:57;15.95;;;9.50;;
63087;SDS011;49173;43.164;27.786;2023-06-22T01:32:28;14.73;;;9.90;;
63087;SDS011;49173;43.164;27.786;2023-06-22T01:34:57;17.33;;;9.75;;
63087;SDS011;49173;43.164;27.786;2023-06-22T01:37:25;13.25;;;9.70;;
63087;SDS011;49173;43.164;27.786;2023-06-22T01:39:53;15.73;;;9.20;;
63087;SDS011;49173;43.164;27.786;2023-06-22T01:42:21;11.43;;;8.98;;
63087;SDS011;49173;43.164;27.786;2023-06-22T01:44:49;10.88;;;8.52;;
63087;SDS011;49173;43.164;27.786;2023-06-22T01:47:15;11.93;;;8.90;;
63087;SDS011;49173;43.164;27.786;2023-06-22T01:49:41;12.73;;;8.93;;
63087;SDS011;49173;43.164;27.786;2023-06-22T01:52:07;11.50;;;8.23;;
63087;SDS011;49173;43.164;27.786;2023-06-22T01:54:33;12.50;;;9.10;;
63087;SDS011;49173;43.164;27.786;2023-06-22T01:56:59;12.27;;;9.02;;
63087;SDS011;49173;43.164;27.786;2023-06-22T01:59:27;12.43;;;8.50;;
63087;SDS011;49173;43.164;27.786;2023-06-22T02:02:00;13.65;;;9.07;;
63087;SDS011;49173;43.164;27.786;2023-06-22T02:04:48;16.30;;;9.13;;
63087;SDS011;49173;43.164;27.786;2023-06-22T02:07:18;15.48;;;9.63;;
63087;SDS011;49173;43.164;27.786;2023-06-22T02:09:48;14.82;;;9.15;;
63087;SDS011;49173;43.164;27.786;2023-06-22T02:12:17;12.73;;;9.63;;
63087;SDS011;49173;43.164;27.786;2023-06-22T02:14:46;10.05;;;8.98;;
63087;SDS011;49173;43.164;27.786;2023-06-22T02:17:13;14.40;;;9.63;;
63087;SDS011;49173;43.164;27.786;2023-06-22T02:19:42;14.43;;;9.85;;
63087;SDS011;49173;43.164;27.786;2023-06-22T02:22:08;10.35;;;8.90;;
63087;SDS011;49173;43.164;27.786;2023-06-22T02:24:34;13.60;;;9.40;;
63087;SDS011;49173;43.164;27.786;2023-06-22T02:27:00;13.50;;;8.57;;
63087;SDS011;49173;43.164;27.786;2023-06-22T02:29:27;11.95;;;9.20;;
63087;SDS011;49173;43.164;27.786;2023-06-22T02:31:54;15.10;;;9.65;;
63087;SDS011;49173;43.164;27.786;2023-06-22T02:34:20;14.35;;;9.50;;
63087;SDS011;49173;43.164;27.786;2023-06-22T02:36:47;10.95;;;9.10;;
63087;SDS011;49173;43.164;27.786;2023-06-22T02:41:51;14.23;;;8.93;;
63087;SDS011;49173;43.164;27.786;2023-06-22T02:44:18;10.85;;;9.52;;
63087;SDS011;49173;43.164;27.786;2023-06-22T02:46:45;11.38;;;9.55;;
63087;SDS011;49173;43.164;27.786;2023-06-22T02:49:12;11.32;;;9.00;;
63087;SDS011;49173;43.164;27.786;2023-06-22T02:51:42;13.50;;;9.07;;
63087;SDS011;49173;43.164;27.786;2023-06-22T02:54:10;11.85;;;9.23;;
63087;SDS011;49173;43.164;27.786;2023-06-22T02:56:36;13.07;;;9.25;;
63087;SDS011;49173;43.164;27.786;2023-06-22T02:59:02;13.25;;;9.25;;
63087;SDS011;49173;43.164;27.786;2023-06-22T03:01:28;15.32;;;9.38;;
63087;SDS011;49173;43.164;27.786;2023-06-22T03:03:56;12.85;;;9.07;;
63087;SDS011;49173;43.164;27.786;2023-06-22T03:08:39;11.68;;;8.82;;
63087;SDS011;49173;43.164;27.786;2023-06-22T03:11:04;12.15;;;8.80;;
63087;SDS011;49173;43.164;27.786;2023-06-22T03:13:30;14.13;;;9.85;;
63087;SDS011;49173;43.164;27.786;2023-06-22T03:15:56;12.07;;;9.15;;
63087;SDS011;49173;43.164;27.786;2023-06-22T03:18:22;13.85;;;9.50;;
63087;SDS011;49173;43.164;27.786;2023-06-22T03:20:47;13.32;;;8.75;;
63087;SDS011;49173;43.164;27.786;2023-06-22T03:23:13;11.90;;;9.20;;
63087;SDS011;49173;43.164;27.786;2023-06-22T03:25:39;15.75;;;9.70;;
63087;SDS011;49173;43.164;27.786;2023-06-22T03:28:06;16.40;;;9.50;;
63087;SDS011;49173;43.164;27.786;2023-06-22T03:30:32;11.80;;;8.98;;
63087;SDS011;49173;43.164;27.786;2023-06-22T03:32:57;11.52;;;9.30;;
63087;SDS011;49173;43.164;27.786;2023-06-22T03:35:23;11.45;;;9.32;;
63087;SDS011;49173;43.164;27.786;2023-06-22T03:37:49;12.40;;;9.55;;
63087;SDS011;49173;43.164;27.786;2023-06-22T03:40:15;10.55;;;9.20;;
63087;SDS011;49173;43.164;27.786;2023-06-22T03:42:40;13.55;;;8.93;;
63087;SDS011;49173;43.164;27.786;2023-06-22T03:45:06;10.05;;;9.00;;
63087;SDS011;49173;43.164;27.786;2023-06-22T03:47:32;11.52;;;9.13;;
63087;SDS011;49173;43.164;27.786;2023-06-22T03:49:59;13.02;;;9.15;;
63087;SDS011;49173;43.164;27.786;2023-06-22T03:52:25;12.88;;;11.13;;
63087;SDS011;49173;43.164;27.786;2023-06-22T03:54:50;15.43;;;9.70;;
63087;SDS011;49173;43.164;27.786;2023-06-22T03:57:16;12.75;;;9.63;;
63087;SDS011;49173;43.164;27.786;2023-06-22T03:59:42;19.42;;;10.35;;
63087;SDS011;49173;43.164;27.786;2023-06-22T04:02:08;17.35;;;10.88;;
63087;SDS011;49173;43.164;27.786;2023-06-22T04:04:33;15.27;;;10.95;;
63087;SDS011;49173;43.164;27.786;2023-06-22T04:07:00;13.30;;;10.85;;
63087;SDS011;49173;43.164;27.786;2023-06-22T04:09:27;18.95;;;11.93;;
63087;SDS011;49173;43.164;27.786;2023-06-22T04:11:53;12.38;;;11.07;;
63087;SDS011;49173;43.164;27.786;2023-06-22T04:14:18;14.43;;;11.57;;
63087;SDS011;49173;43.164;27.786;2023-06-22T04:16:44;15.55;;;11.30;;
63087;SDS011;49173;43.164;27.786;2023-06-22T04:19:10;16.25;;;11.40;;
63087;SDS011;49173;43.164;27.786;2023-06-22T04:21:41;20.60;;;11.15;;
63087;SDS011;49173;43.164;27.786;2023-06-22T04:24:08;15.02;;;10.63;;
63087;SDS011;49173;43.164;27.786;2023-06-22T04:26:34;15.88;;;11.35;;
63087;SDS011;49173;43.164;27.786;2023-06-22T04:29:05;16.17;;;9.67;;
63087;SDS011;49173;43.164;27.786;2023-06-22T04:31:31;15.23;;;10.32;;
63087;SDS011;49173;43.164;27.786;2023-06-22T04:34:02;18.90;;;10.65;;
63087;SDS011;49173;43.164;27.786;2023-06-22T04:36:35;14.43;;;9.73;;
63087;SDS011;49173;43.164;27.786;2023-06-22T04:39:06;15.35;;;10.48;;
63087;SDS011;49173;43.164;27.786;2023-06-22T04:41:35;12.98;;;10.13;;
63087;SDS011;49173;43.164;27.786;2023-06-22T04:44:11;13.48;;;9.93;;
63087;SDS011;49173;43.164;27.786;2023-06-22T04:46:39;15.50;;;10.40;;
63087;SDS011;49173;43.164;27.786;2023-06-22T04:49:08;12.95;;;9.65;;
63087;SDS011;49173;43.164;27.786;2023-06-22T04:54:09;14.35;;;10.48;;
63087;SDS011;49173;43.164;27.786;2023-06-22T04:56:35;15.93;;;11.60;;
63087;SDS011;49173;43.164;27.786;2023-06-22T04:59:01;16.95;;;13.30;;
63087;SDS011;49173;43.164;27.786;2023-06-22T05:01:28;14.80;;;11.80;;
63087;SDS011;49173;43.164;27.786;2023-06-22T05:03:56;18.40;;;10.93;;
63087;SDS011;49173;43.164;27.786;2023-06-22T05:06:22;15.60;;;10.35;;
63087;SDS011;49173;43.164;27.786;2023-06-22T05:08:56;12.60;;;9.70;;
63087;SDS011;49173;43.164;27.786;2023-06-22T05:11:25;14.40;;;10.13;;
63087;SDS011;49173;43.164;27.786;2023-06-22T05:13:54;18.58;;;11.32;;
63087;SDS011;49173;43.164;27.786;2023-06-22T05:16:20;14.23;;;10.90;;
63087;SDS011;49173;43.164;27.786;2023-06-22T05:18:50;18.05;;;10.77;;
63087;SDS011;49173;43.164;27.786;2023-06-22T05:21:23;14.07;;;10.05;;
63087;SDS011;49173;43.164;27.786;2023-06-22T05:23:50;11.32;;;9.23;;
63087;SDS011;49173;43.164;27.786;2023-06-22T05:26:18;14.05;;;9.95;;
63087;SDS011;49173;43.164;27.786;2023-06-22T05:28:45;15.95;;;9.48;;
63087;SDS011;49173;43.164;27.786;2023-06-22T05:31:12;16.95;;;9.90;;
63087;SDS011;49173;43.164;27.786;2023-06-22T05:33:39;14.68;;;9.43;;
63087;SDS011;49173;43.164;27.786;2023-06-22T05:36:05;15.93;;;9.85;;
63087;SDS011;49173;43.164;27.786;2023-06-22T05:38:32;13.35;;;9.98;;
63087;SDS011;49173;43.164;27.786;2023-06-22T05:40:58;12.35;;;10.07;;
63087;SDS011;49173;43.164;27.786;2023-06-22T05:43:24;17.65;;;11.52;;
63087;SDS011;49173;43.164;27.786;2023-06-22T05:45:50;17.25;;;11.48;;
63087;SDS011;49173;43.164;27.786;2023-06-22T05:48:16;15.18;;;12.50;;
63087;SDS011;49173;43.164;27.786;2023-06-22T05:50:42;16.00;;;12.88;;
63087;SDS011;49173;43.164;27.786;2023-06-22T05:53:08;16.98;;;12.20;;
63087;SDS011;49173;43.164;27.786;2023-06-22T05:55:34;15.90;;;10.95;;
63087;SDS011;49173;43.164;27.786;2023-06-22T05:57:59;14.45;;;10.13;;
63087;SDS011;49173;43.164;27.786;2023-06-22T06:00:25;15.68;;;9.65;;
63087;SDS011;49173;43.164;27.786;2023-06-22T06:02:51;15.48;;;10.63;;
63087;SDS011;49173;43.164;27.786;2023-06-22T06:05:17;16.88;;;12.95;;
63087;SDS011;49173;43.164;27.786;2023-06-22T06:07:44;15.98;;;10.10;;
63087;SDS011;49173;43.164;27.786;2023-06-22T06:10:11;12.35;;;9.77;;
63087;SDS011;49173;43.164;27.786;2023-06-22T06:12:38;12.90;;;10.52;;
63087;SDS011;49173;43.164;27.786;2023-06-22T06:15:04;12.55;;;9.88;;
63087;SDS011;49173;43.164;27.786;2023-06-22T06:17:30;13.43;;;8.27;;
63087;SDS011;49173;43.164;27.786;2023-06-22T06:19:59;11.88;;;9.07;;
63087;SDS011;49173;43.164;27.786;2023-06-22T06:22:26;15.77;;;8.95;;
63087;SDS011;49173;43.164;27.786;2023-06-22T06:24:51;13.15;;;9.27;;
63087;SDS011;49173;43.164;27.786;2023-06-22T06:27:18;10.95;;;8.00;;
63087;SDS011;49173;43.164;27.786;2023-06-22T06:29:44;10.32;;;7.45;;
63087;SDS011;49173;43.164;27.786;2023-06-22T06:32:20;13.82;;;7.50;;
63087;SDS011;49173;43.164;27.786;2023-06-22T06:34:46;12.07;;;7.18;;
63087;SDS011;49173;43.164;27.786;2023-06-22T06:37:11;13.80;;;7.78;;
63087;SDS011;49173;43.164;27.786;2023-06-22T06:39:37;8.88;;;7.78;;
63087;SDS011;49173;43.164;27.786;2023-06-22T06:42:03;13.25;;;8.32;;
63087;SDS011;49173;43.164;27.786;2023-06-22T06:44:30;15.68;;;8.00;;
63087;SDS011;49173;43.164;27.786;2023-06-22T06:46:56;9.70;;;7.80;;
63087;SDS011;49173;43.164;27.786;2023-06-22T06:49:22;10.70;;;7.55;;
63087;SDS011;49173;43.164;27.786;2023-06-22T06:51:47;9.95;;;6.90;;
63087;SDS011;49173;43.164;27.786;2023-06-22T06:54:13;8.77;;;7.78;;
63087;SDS011;49173;43.164;27.786;2023-06-22T06:56:39;11.52;;;8.88;;
63087;SDS011;49173;43.164;27.786;2023-06-22T06:59:05;13.57;;;7.93;;
63087;SDS011;49173;43.164;27.786;2023-06-22T07:01:31;10.88;;;7.70;;
63087;SDS011;49173;43.164;27.786;2023-06-22T07:03:59;11.15;;;7.13;;
63087;SDS011;49173;43.164;27.786;2023-06-22T07:06:26;9.13;;;6.60;;
63087;SDS011;49173;43.164;27.786;2023-06-22T07:08:55;10.80;;;7.35;;
63087;SDS011;49173;43.164;27.786;2023-06-22T07:11:21;16.48;;;6.45;;
63087;SDS011;49173;43.164;27.786;2023-06-22T07:13:47;11.73;;;6.20;;
63087;SDS011;49173;43.164;27.786;2023-06-22T07:16:13;10.80;;;6.03;;
63087;SDS011;49173;43.164;27.786;2023-06-22T07:18:39;9.80;;;5.95;;
63087;SDS011;49173;43.164;27.786;2023-06-22T07:21:05;13.27;;;6.57;;
63087;SDS011;49173;43.164;27.786;2023-06-22T07:23:32;7.40;;;5.72;;
63087;SDS011;49173;43.164;27.786;2023-06-22T07:25:59;9.13;;;5.72;;
63087;SDS011;49173;43.164;27.786;2023-06-22T07:28:28;7.95;;;5.75;;
63087;SDS011;49173;43.164;27.786;2023-06-22T07:30:56;8.45;;;5.38;;
63087;SDS011;49173;43.164;27.786;2023-06-22T07:33:23;5.82;;;4.90;;
63087;SDS011;49173;43.164;27.786;2023-06-22T07:35:48;6.80;;;4.63;;
63087;SDS011;49173;43.164;27.786;2023-06-22T07:38:16;7.57;;;4.40;;
63087;SDS011;49173;43.164;27.786;2023-06-22T07:40:42;6.53;;;4.63;;
63087;SDS011;49173;43.164;27.786;2023-06-22T07:43:09;9.85;;;4.70;;
63087;SDS011;49173;43.164;27.786;2023-06-22T07:45:35;8.05;;;4.85;;
63087;SDS011;49173;43.164;27.786;2023-06-22T07:48:03;6.03;;;4.50;;
63087;SDS011;49173;43.164;27.786;2023-06-22T07:50:29;5.55;;;4.38;;
63087;SDS011;49173;43.164;27.786;2023-06-22T07:52:56;10.30;;;4.20;;
63087;SDS011;49173;43.164;27.786;2023-06-22T07:55:22;8.48;;;4.20;;
63087;SDS011;49173;43.164;27.786;2023-06-22T07:57:48;4.72;;;3.78;;
63087;SDS011;49173;43.164;27.786;2023-06-22T08:00:17;4.85;;;3.67;;
63087;SDS011;49173;43.164;27.786;2023-06-22T08:02:45;4.45;;;3.75;;
63087;SDS011;49173;43.164;27.786;2023-06-22T08:05:12;5.43;;;4.03;;
63087;SDS011;49173;43.164;27.786;2023-06-22T08:07:38;5.22;;;3.65;;
63087;SDS011;49173;43.164;27.786;2023-06-22T08:10:05;7.13;;;3.50;;
63087;SDS011;49173;43.164;27.786;2023-06-22T08:12:31;6.30;;;3.80;;
63087;SDS011;49173;43.164;27.786;2023-06-22T08:14:58;5.22;;;3.85;;
63087;SDS011;49173;43.164;27.786;2023-06-22T08:17:24;9.80;;;3.67;;
63087;SDS011;49173;43.164;27.786;2023-06-22T08:19:50;4.05;;;3.30;;
63087;SDS011;49173;43.164;27.786;2023-06-22T08:22:16;6.18;;;3.83;;
63087;SDS011;49173;43.164;27.786;2023-06-22T08:24:43;4.70;;;3.67;;
63087;SDS011;49173;43.164;27.786;2023-06-22T08:27:09;10.73;;;3.88;;
63087;SDS011;49173;43.164;27.786;2023-06-22T08:29:39;5.10;;;3.72;;
63087;SDS011;49173;43.164;27.786;2023-06-22T08:32:05;5.60;;;3.88;;
63087;SDS011;49173;43.164;27.786;2023-06-22T08:34:32;7.22;;;3.72;;
63087;SDS011;49173;43.164;27.786;2023-06-22T08:36:58;5.25;;;4.20;;
63087;SDS011;49173;43.164;27.786;2023-06-22T08:39:24;4.20;;;3.75;;
63087;SDS011;49173;43.164;27.786;2023-06-22T08:41:52;4.80;;;3.72;;
63087;SDS011;49173;43.164;27.786;2023-06-22T08:44:18;7.25;;;3.92;;
63087;SDS011;49173;43.164;27.786;2023-06-22T08:46:45;4.82;;;3.88;;
63087;SDS011;49173;43.164;27.786;2023-06-22T08:49:11;6.05;;;4.05;;
63087;SDS011;49173;43.164;27.786;2023-06-22T08:51:37;7.30;;;3.90;;
63087;SDS011;49173;43.164;27.786;2023-06-22T08:54:03;4.70;;;3.70;;
63087;SDS011;49173;43.164;27.786;2023-06-22T08:56:29;8.02;;;4.15;;
63087;SDS011;49173;43.164;27.786;2023-06-22T08:58:55;5.45;;;3.53;;
63087;SDS011;49173;43.164;27.786;2023-06-22T09:01:21;4.32;;;3.47;;
63087;SDS011;49173;43.164;27.786;2023-06-22T09:03:48;6.05;;;4.03;;
63087;SDS011;49173;43.164;27.786;2023-06-22T09:06:20;5.88;;;4.28;;
63087;SDS011;49173;43.164;27.786;2023-06-22T09:08:47;5.00;;;3.75;;
63087;SDS011;49173;43.164;27.786;2023-06-22T09:11:13;5.85;;;3.83;;
63087;SDS011;49173;43.164;27.786;2023-06-22T09:13:39;5.57;;;4.13;;
63087;SDS011;49173;43.164;27.786;2023-06-22T09:16:05;5.75;;;3.60;;
63087;SDS011;49173;43.164;27.786;2023-06-22T09:18:32;6.03;;;3.83;;
63087;SDS011;49173;43.164;27.786;2023-06-22T09:20:59;4.50;;;3.42;;
63087;SDS011;49173;43.164;27.786;2023-06-22T09:23:25;8.55;;;4.55;;
63087;SDS011;49173;43.164;27.786;2023-06-22T09:25:51;5.03;;;4.43;;
63087;SDS011;49173;43.164;27.786;2023-06-22T09:28:17;5.57;;;4.10;;
63087;SDS011;49173;43.164;27.786;2023-06-22T09:30:45;9.15;;;4.50;;
63087;SDS011;49173;43.164;27.786;2023-06-22T09:33:11;6.78;;;4.78;;
63087;SDS011;49173;43.164;27.786;2023-06-22T09:35:37;6.00;;;4.72;;
63087;SDS011;49173;43.164;27.786;2023-06-22T09:38:04;7.47;;;4.53;;
63087;SDS011;49173;43.164;27.786;2023-06-22T09:40:32;9.63;;;4.43;;
63087;SDS011;49173;43.164;27.786;2023-06-22T09:43:00;6.65;;;4.47;;
63087;SDS011;49173;43.164;27.786;2023-06-22T09:45:26;12.90;;;4.35;;
63087;SDS011;49173;43.164;27.786;2023-06-22T09:47:52;11.25;;;4.45;;
63087;SDS011;49173;43.164;27.786;2023-06-22T09:50:21;6.32;;;4.00;;
63087;SDS011;49173;43.164;27.786;2023-06-22T09:52:47;8.38;;;4.40;;
63087;SDS011;49173;43.164;27.786;2023-06-22T09:55:16;8.00;;;4.38;;
63087;SDS011;49173;43.164;27.786;2023-06-22T09:57:42;5.95;;;4.80;;
63087;SDS011;49173;43.164;27.786;2023-06-22T10:00:08;6.93;;;4.07;;
63087;SDS011;49173;43.164;27.786;2023-06-22T10:02:34;7.43;;;4.65;;
63087;SDS011;49173;43.164;27.786;2023-06-22T10:05:02;8.10;;;4.55;;
63087;SDS011;49173;43.164;27.786;2023-06-22T10:07:28;9.73;;;4.40;;
63087;SDS011;49173;43.164;27.786;2023-06-22T10:09:55;6.47;;;4.20;;
63087;SDS011;49173;43.164;27.786;2023-06-22T10:12:20;6.47;;;4.13;;
63087;SDS011;49173;43.164;27.786;2023-06-22T10:14:46;6.40;;;4.75;;
63087;SDS011;49173;43.164;27.786;2023-06-22T10:17:12;5.57;;;4.78;;
63087;SDS011;49173;43.164;27.786;2023-06-22T10:19:38;6.68;;;4.45;;
63087;SDS011;49173;43.164;27.786;2023-06-22T10:22:07;5.43;;;4.60;;
63087;SDS011;49173;43.164;27.786;2023-06-22T10:24:33;5.57;;;4.78;;
63087;SDS011;49173;43.164;27.786;2023-06-22T10:27:04;5.90;;;4.65;;
63087;SDS011;49173;43.164;27.786;2023-06-22T10:29:30;5.82;;;4.70;;
63087;SDS011;49173;43.164;27.786;2023-06-22T10:31:57;8.48;;;4.82;;
63087;SDS011;49173;43.164;27.786;2023-06-22T10:34:23;5.38;;;4.55;;
63087;SDS011;49173;43.164;27.786;2023-06-22T10:36:49;8.55;;;4.40;;
63087;SDS011;49173;43.164;27.786;2023-06-22T10:39:15;4.95;;;4.43;;
63087;SDS011;49173;43.164;27.786;2023-06-22T10:41:41;6.65;;;4.60;;
63087;SDS011;49173;43.164;27.786;2023-06-22T10:44:07;7.10;;;4.88;;
63087;SDS011;49173;43.164;27.786;2023-06-22T10:46:33;7.70;;;4.40;;
63087;SDS011;49173;43.164;27.786;2023-06-22T10:49:00;7.38;;;4.82;;
63087;SDS011;49173;43.164;27.786;2023-06-22T10:51:26;7.43;;;5.20;;
63087;SDS011;49173;43.164;27.786;2023-06-22T10:53:53;8.18;;;4.88;;
63087;SDS011;49173;43.164;27.786;2023-06-22T10:56:20;5.28;;;4.47;;
63087;SDS011;49173;43.164;27.786;2023-06-22T10:58:46;5.57;;;4.88;;
63087;SDS011;49173;43.164;27.786;2023-06-22T11:01:12;8.90;;;4.75;;
63087;SDS011;49173;43.164;27.786;2023-06-22T11:03:38;6.72;;;5.18;;
63087;SDS011;49173;43.164;27.786;2023-06-22T11:06:06;6.10;;;4.70;;
63087;SDS011;49173;43.164;27.786;2023-06-22T11:08:32;6.60;;;4.72;;
63087;SDS011;49173;43.164;27.786;2023-06-22T11:11:00;6.25;;;4.53;;
63087;SDS011;49173;43.164;27.786;2023-06-22T11:13:26;8.20;;;4.85;;
63087;SDS011;49173;43.164;27.786;2023-06-22T11:15:55;7.10;;;5.00;;
63087;SDS011;49173;43.164;27.786;2023-06-22T11:18:21;6.45;;;5.05;;
63087;SDS011;49173;43.164;27.786;2023-06-22T11:20:48;7.68;;;4.50;;
63087;SDS011;49173;43.164;27.786;2023-06-22T11:23:18;6.18;;;4.60;;
63087;SDS011;49173;43.164;27.786;2023-06-22T11:25:44;7.85;;;4.70;;
63087;SDS011;49173;43.164;27.786;2023-06-22T11:28:11;5.75;;;5.10;;
63087;SDS011;49173;43.164;27.786;2023-06-22T11:30:38;11.20;;;4.95;;
63087;SDS011;49173;43.164;27.786;2023-06-22T11:33:15;6.85;;;4.53;;
63087;SDS011;49173;43.164;27.786;2023-06-22T11:35:41;7.68;;;4.72;;
63087;SDS011;49173;43.164;27.786;2023-06-22T11:38:08;7.30;;;5.15;;
63087;SDS011;49173;43.164;27.786;2023-06-22T11:40:34;5.20;;;4.40;;
63087;SDS011;49173;43.164;27.786;2023-06-22T11:43:00;9.27;;;4.57;;
63087;SDS011;49173;43.164;27.786;2023-06-22T11:45:26;5.72;;;4.72;;
63087;SDS011;49173;43.164;27.786;2023-06-22T11:47:52;7.35;;;4.78;;
63087;SDS011;49173;43.164;27.786;2023-06-22T11:50:18;7.43;;;4.88;;
63087;SDS011;49173;43.164;27.786;2023-06-22T11:52:44;5.57;;;4.82;;
63087;SDS011;49173;43.164;27.786;2023-06-22T11:55:10;8.80;;;4.70;;
63087;SDS011;49173;43.164;27.786;2023-06-22T11:57:36;8.52;;;4.93;;
63087;SDS011;49173;43.164;27.786;2023-06-22T12:00:03;5.88;;;4.35;;
63087;SDS011;49173;43.164;27.786;2023-06-22T12:02:46;5.20;;;4.70;;
63087;SDS011;49173;43.164;27.786;2023-06-22T12:05:13;14.52;;;5.07;;
63087;SDS011;49173;43.164;27.786;2023-06-22T12:07:39;9.48;;;5.40;;
63087;SDS011;49173;43.164;27.786;2023-06-22T12:10:06;6.30;;;4.80;;
63087;SDS011;49173;43.164;27.786;2023-06-22T12:12:38;7.45;;;4.95;;
63087;SDS011;49173;43.164;27.786;2023-06-22T12:15:08;5.93;;;4.75;;
63087;SDS011;49173;43.164;27.786;2023-06-22T12:17:41;6.40;;;4.90;;
63087;SDS011;49173;43.164;27.786;2023-06-22T12:20:10;7.80;;;4.70;;
63087;SDS011;49173;43.164;27.786;2023-06-22T12:22:45;5.85;;;4.50;;
63087;SDS011;49173;43.164;27.786;2023-06-22T12:25:20;9.02;;;4.72;;
63087;SDS011;49173;43.164;27.786;2023-06-22T12:27:52;9.07;;;4.50;;
63087;SDS011;49173;43.164;27.786;2023-06-22T12:30:24;7.75;;;4.75;;
63087;SDS011;49173;43.164;27.786;2023-06-22T12:32:58;6.22;;;4.65;;
63087;SDS011;49173;43.164;27.786;2023-06-22T12:35:27;5.07;;;4.40;;
63087;SDS011;49173;43.164;27.786;2023-06-22T12:37:56;5.20;;;4.68;;
63087;SDS011;49173;43.164;27.786;2023-06-22T12:40:31;6.75;;;4.60;;
63087;SDS011;49173;43.164;27.786;2023-06-22T12:43:17;5.85;;;4.70;;
63087;SDS011;49173;43.164;27.786;2023-06-22T12:45:49;5.78;;;4.68;;
63087;SDS011;49173;43.164;27.786;2023-06-22T12:48:22;6.22;;;4.18;;
63087;SDS011;49173;43.164;27.786;2023-06-22T12:51:07;5.22;;;4.50;;
63087;SDS011;49173;43.164;27.786;2023-06-22T12:53:36;7.28;;;4.50;;
63087;SDS011;49173;43.164;27.786;2023-06-22T12:56:12;7.63;;;4.30;;
63087;SDS011;49173;43.164;27.786;2023-06-22T12:58:41;6.20;;;4.15;;
63087;SDS011;49173;43.164;27.786;2023-06-22T13:01:11;5.55;;;4.10;;
63087;SDS011;49173;43.164;27.786;2023-06-22T13:03:41;5.60;;;4.20;;
63087;SDS011;49173;43.164;27.786;2023-06-22T13:06:16;5.97;;;4.22;;
63087;SDS011;49173;43.164;27.786;2023-06-22T13:08:45;6.93;;;4.45;;
63087;SDS011;49173;43.164;27.786;2023-06-22T13:11:23;5.45;;;4.25;;
63087;SDS011;49173;43.164;27.786;2023-06-22T13:14:01;6.68;;;4.00;;
63087;SDS011;49173;43.164;27.786;2023-06-22T13:16:36;6.43;;;3.72;;
63087;SDS011;49173;43.164;27.786;2023-06-22T13:19:25;9.85;;;4.22;;
63087;SDS011;49173;43.164;27.786;2023-06-22T13:22:09;6.28;;;3.83;;
63087;SDS011;49173;43.164;27.786;2023-06-22T13:24:56;7.30;;;3.60;;
63087;SDS011;49173;43.164;27.786;2023-06-22T13:27:46;6.25;;;3.85;;
63087;SDS011;49173;43.164;27.786;2023-06-22T13:30:22;8.25;;;3.78;;
63087;SDS011;49173;43.164;27.786;2023-06-22T13:32:58;5.78;;;3.92;;
63087;SDS011;49173;43.164;27.786;2023-06-22T13:35:27;8.23;;;3.78;;
63087;SDS011;49173;43.164;27.786;2023-06-22T13:37:56;5.40;;;3.67;;
63087;SDS011;49173;43.164;27.786;2023-06-22T13:40:38;8.32;;;3.92;;
63087;SDS011;49173;43.164;27.786;2023-06-22T13:43:07;7.05;;;3.67;;
63087;SDS011;49173;43.164;27.786;2023-06-22T13:45:36;5.85;;;3.88;;
63087;SDS011;49173;43.164;27.786;2023-06-22T13:48:09;6.80;;;3.30;;
63087;SDS011;49173;43.164;27.786;2023-06-22T13:50:35;6.03;;;3.63;;
63087;SDS011;49173;43.164;27.786;2023-06-22T13:53:04;7.85;;;3.80;;
63087;SDS011;49173;43.164;27.786;2023-06-22T13:55:31;3.85;;;3.40;;
63087;SDS011;49173;43.164;27.786;2023-06-22T13:58:00;4.75;;;3.60;;
63087;SDS011;49173;43.164;27.786;2023-06-22T14:00:29;5.35;;;3.75;;
63087;SDS011;49173;43.164;27.786;2023-06-22T14:03:01;3.92;;;3.47;;
63087;SDS011;49173;43.164;27.786;2023-06-22T14:05:43;5.07;;;3.67;;
63087;SDS011;49173;43.164;27.786;2023-06-22T14:08:15;6.50;;;3.63;;
63087;SDS011;49173;43.164;27.786;2023-06-22T14:10:41;5.30;;;3.67;;
63087;SDS011;49173;43.164;27.786;2023-06-22T14:13:10;6.28;;;4.05;;
63087;SDS011;49173;43.164;27.786;2023-06-22T14:15:39;5.47;;;4.20;;
63087;SDS011;49173;43.164;27.786;2023-06-22T14:18:10;4.72;;;3.58;;
63087;SDS011;49173;43.164;27.786;2023-06-22T14:20:36;6.60;;;4.15;;
63087;SDS011;49173;43.164;27.786;2023-06-22T14:23:06;6.90;;;4.15;;
63087;SDS011;49173;43.164;27.786;2023-06-22T14:25:38;6.32;;;4.35;;
63087;SDS011;49173;43.164;27.786;2023-06-22T14:28:08;6.25;;;4.18;;
63087;SDS011;49173;43.164;27.786;2023-06-22T14:30:40;5.65;;;4.50;;
63087;SDS011;49173;43.164;27.786;2023-06-22T14:33:12;9.88;;;4.55;;
63087;SDS011;49173;43.164;27.786;2023-06-22T14:35:42;7.30;;;4.72;;
63087;SDS011;49173;43.164;27.786;2023-06-22T14:38:17;7.63;;;4.82;;
63087;SDS011;49173;43.164;27.786;2023-06-22T14:40:44;8.82;;;4.53;;
63087;SDS011;49173;43.164;27.786;2023-06-22T14:43:16;5.22;;;4.70;;
63087;SDS011;49173;43.164;27.786;2023-06-22T14:45:55;5.68;;;4.45;;
63087;SDS011;49173;43.164;27.786;2023-06-22T14:48:24;5.53;;;4.30;;
63087;SDS011;49173;43.164;27.786;2023-06-22T14:50:58;5.80;;;4.70;;